sensor_id;sensor_type;location;lat;lon;timestamp;P1;durP1;ratioP1;P2;durP2;ratioP2
21416;SDS011;10869;52.238;10.716;2023-12-20T04:02:12;27.77;;;4.83;;
21416;SDS011;10869;52.238;10.716;2023-12-20T04:04:38;23.87;;;3.30;;
21416;SDS011;10869;52.238;10.716;2023-12-20T04:07:04;21.13;;;4.80;;
21416;SDS011;10869;52.238;10.716;2023-12-20T04:09:29;15.10;;;3.10;;
21416;SDS011;10869;52.238;10.716;2023-12-20T04:11:55;17.07;;;3.17;;
21416;SDS011;10869;52.238;10.716;2023-12-20T04:14:21;22.27;;;3.90;;
21416;SDS011;10869;52.238;10.716;2023-12-20T04:16:46;16.97;;;3.00;;
21416;SDS011;10869;52.238;10.716;2023-12-20T04:19:12;19.17;;;3.37;;
21416;SDS011;10869;52.238;10.716;2023-12-20T04:21:38;26.97;;;3.07;;
21416;SDS011;10869;52.238;10.716;2023-12-20T04:24:03;15.30;;;3.20;;
21416;SDS011;10869;52.238;10.716;2023-12-20T04:26:29;23.47;;;3.50;;
21416;SDS011;10869;52.238;10.716;2023-12-20T04:28:55;23.13;;;3.23;;
21416;SDS011;10869;52.238;10.716;2023-12-20T04:31:21;17.07;;;3.53;;
21416;SDS011;10869;52.238;10.716;2023-12-20T04:33:46;14.30;;;2.87;;
21416;SDS011;10869;52.238;10.716;2023-12-20T04:36:12;17.90;;;3.07;;
21416;SDS011;10869;52.238;10.716;2023-12-20T04:38:38;18.97;;;3.43;;
21416;SDS011;10869;52.238;10.716;2023-12-20T04:41:03;17.37;;;3.63;;
21416;SDS011;10869;52.238;10.716;2023-12-20T04:43:29;24.30;;;3.57;;
21416;SDS011;10869;52.238;10.716;2023-12-20T04:45:55;15.17;;;2.87;;
21416;SDS011;10869;52.238;10.716;2023-12-20T04:48:21;13.90;;;3.53;;
21416;SDS011;10869;52.238;10.716;2023-12-20T04:50:46;16.93;;;3.10;;
21416;SDS011;10869;52.238;10.716;2023-12-20T04:53:12;12.57;;;3.60;;
21416;SDS011;10869;52.238;10.716;2023-12-20T04:55:39;23.63;;;7.80;;
21416;SDS011;10869;52.238;10.716;2023-12-20T04:58:05;23.03;;;3.70;;
21416;SDS011;10869;52.238;10.716;2023-12-20T05:00:31;13.63;;;3.17;;
21416;SDS011;10869;52.238;10.716;2023-12-20T05:02:58;15.93;;;2.77;;
21416;SDS011;10869;52.238;10.716;2023-12-20T05:05:24;16.60;;;3.60;;
21416;SDS011;10869;52.238;10.716;2023-12-20T05:07:50;14.40;;;2.73;;
21416;SDS011;10869;52.238;10.716;2023-12-20T05:10:17;12.03;;;2.60;;
21416;SDS011;10869;52.238;10.716;2023-12-20T05:12:44;13.33;;;2.70;;
21416;SDS011;10869;52.238;10.716;2023-12-20T05:15:21;17.17;;;2.97;;
21416;SDS011;10869;52.238;10.716;2023-12-20T05:18:08;13.53;;;2.60;;
21416;SDS011;10869;52.238;10.716;2023-12-20T05:20:34;13.50;;;2.10;;
21416;SDS011;10869;52.238;10.716;2023-12-20T05:23:00;13.03;;;3.43;;
21416;SDS011;10869;52.238;10.716;2023-12-20T05:25:26;13.93;;;2.07;;
21416;SDS011;10869;52.238;10.716;2023-12-20T05:27:52;17.37;;;3.20;;
21416;SDS011;10869;52.238;10.716;2023-12-20T05:30:20;20.17;;;3.93;;
21416;SDS011;10869;52.238;10.716;2023-12-20T05:32:48;14.50;;;2.60;;
21416;SDS011;10869;52.238;10.716;2023-12-20T05:35:16;15.63;;;2.57;;
21416;SDS011;10869;52.238;10.716;2023-12-20T05:41:05;16.23;;;2.20;;
21416;SDS011;10869;52.238;10.716;2023-12-20T05:43:33;18.00;;;2.67;;
21416;SDS011;10869;52.238;10.716;2023-12-20T05:45:59;11.30;;;2.70;;
21416;SDS011;10869;52.238;10.716;2023-12-20T05:48:27;13.53;;;2.43;;
21416;SDS011;10869;52.238;10.716;2023-12-20T05:50:56;9.10;;;2.00;;
21416;SDS011;10869;52.238;10.716;2023-12-20T05:53:25;15.60;;;2.93;;
21416;SDS011;10869;52.238;10.716;2023-12-20T05:55:59;13.33;;;2.53;;
21416;SDS011;10869;52.238;10.716;2023-12-20T05:58:25;14.73;;;2.67;;
21416;SDS011;10869;52.238;10.716;2023-12-20T06:00:56;19.63;;;4.23;;
21416;SDS011;10869;52.238;10.716;2023-12-20T06:03:25;20.77;;;3.70;;
21416;SDS011;10869;52.238;10.716;2023-12-20T06:05:53;18.53;;;4.73;;
21416;SDS011;10869;52.238;10.716;2023-12-20T06:08:20;21.27;;;6.83;;
21416;SDS011;10869;52.238;10.716;2023-12-20T06:10:49;20.93;;;6.80;;
21416;SDS011;10869;52.238;10.716;2023-12-20T06:13:18;22.00;;;6.80;;
21416;SDS011;10869;52.238;10.716;2023-12-20T06:15:51;16.97;;;5.73;;
21416;SDS011;10869;52.238;10.716;2023-12-20T06:18:20;20.07;;;3.50;;
21416;SDS011;10869;52.238;10.716;2023-12-20T06:20:47;15.17;;;3.10;;
21416;SDS011;10869;52.238;10.716;2023-12-20T06:23:14;19.80;;;3.40;;
21416;SDS011;10869;52.238;10.716;2023-12-20T06:25:43;12.30;;;3.53;;
21416;SDS011;10869;52.238;10.716;2023-12-20T06:28:16;24.10;;;3.57;;
21416;SDS011;10869;52.238;10.716;2023-12-20T06:30:43;20.53;;;3.83;;
21416;SDS011;10869;52.238;10.716;2023-12-20T06:33:15;17.40;;;3.50;;
21416;SDS011;10869;52.238;10.716;2023-12-20T06:35:40;16.33;;;3.40;;
21416;SDS011;10869;52.238;10.716;2023-12-20T06:38:06;19.60;;;3.63;;
21416;SDS011;10869;52.238;10.716;2023-12-20T06:40:33;20.03;;;4.10;;
21416;SDS011;10869;52.238;10.716;2023-12-20T06:42:59;19.23;;;3.10;;
21416;SDS011;10869;52.238;10.716;2023-12-20T06:45:27;22.20;;;3.57;;
21416;SDS011;10869;52.238;10.716;2023-12-20T06:47:53;18.83;;;4.07;;
21416;SDS011;10869;52.238;10.716;2023-12-20T06:50:20;17.73;;;4.33;;
21416;SDS011;10869;52.238;10.716;2023-12-20T06:52:45;21.50;;;3.83;;
21416;SDS011;10869;52.238;10.716;2023-12-20T06:55:11;14.63;;;3.70;;
21416;SDS011;10869;52.238;10.716;2023-12-20T06:57:37;22.53;;;4.63;;
21416;SDS011;10869;52.238;10.716;2023-12-20T07:00:03;23.80;;;4.60;;
21416;SDS011;10869;52.238;10.716;2023-12-20T07:02:29;21.40;;;4.67;;
21416;SDS011;10869;52.238;10.716;2023-12-20T07:04:55;16.50;;;4.40;;
21416;SDS011;10869;52.238;10.716;2023-12-20T07:07:21;21.70;;;4.43;;
21416;SDS011;10869;52.238;10.716;2023-12-20T07:09:48;22.63;;;5.03;;
21416;SDS011;10869;52.238;10.716;2023-12-20T07:12:14;24.80;;;5.40;;
21416;SDS011;10869;52.238;10.716;2023-12-20T07:14:40;16.73;;;4.47;;
21416;SDS011;10869;52.238;10.716;2023-12-20T07:20:28;20.70;;;5.43;;
21416;SDS011;10869;52.238;10.716;2023-12-20T07:22:53;29.77;;;4.87;;
21416;SDS011;10869;52.238;10.716;2023-12-20T07:25:19;26.90;;;5.60;;
21416;SDS011;10869;52.238;10.716;2023-12-20T07:27:45;22.50;;;4.43;;
21416;SDS011;10869;52.238;10.716;2023-12-20T07:30:11;21.83;;;4.43;;
21416;SDS011;10869;52.238;10.716;2023-12-20T07:32:37;20.53;;;4.00;;
21416;SDS011;10869;52.238;10.716;2023-12-20T07:35:06;19.03;;;5.17;;
21416;SDS011;10869;52.238;10.716;2023-12-20T07:37:32;26.73;;;4.97;;
21416;SDS011;10869;52.238;10.716;2023-12-20T07:39:57;24.87;;;5.10;;
21416;SDS011;10869;52.238;10.716;2023-12-20T07:42:23;16.97;;;4.10;;
21416;SDS011;10869;52.238;10.716;2023-12-20T07:44:49;23.93;;;5.43;;
21416;SDS011;10869;52.238;10.716;2023-12-20T07:47:14;21.27;;;4.67;;
21416;SDS011;10869;52.238;10.716;2023-12-20T07:49:44;26.43;;;4.80;;
21416;SDS011;10869;52.238;10.716;2023-12-20T07:52:10;17.10;;;4.63;;
21416;SDS011;10869;52.238;10.716;2023-12-20T07:54:35;15.77;;;4.00;;
21416;SDS011;10869;52.238;10.716;2023-12-20T07:57:01;19.33;;;4.33;;
21416;SDS011;10869;52.238;10.716;2023-12-20T07:59:27;19.90;;;4.27;;
21416;SDS011;10869;52.238;10.716;2023-12-20T08:01:56;17.90;;;4.57;;
21416;SDS011;10869;52.238;10.716;2023-12-20T08:04:21;15.73;;;5.13;;
21416;SDS011;10869;52.238;10.716;2023-12-20T08:06:47;17.47;;;4.70;;
21416;SDS011;10869;52.238;10.716;2023-12-20T08:09:13;20.23;;;5.27;;
21416;SDS011;10869;52.238;10.716;2023-12-20T08:11:39;21.77;;;4.97;;
21416;SDS011;10869;52.238;10.716;2023-12-20T08:14:04;20.23;;;4.03;;
21416;SDS011;10869;52.238;10.716;2023-12-20T08:19:52;22.53;;;5.63;;
21416;SDS011;10869;52.238;10.716;2023-12-20T08:22:18;20.20;;;3.97;;
21416;SDS011;10869;52.238;10.716;2023-12-20T08:24:44;18.67;;;3.63;;
21416;SDS011;10869;52.238;10.716;2023-12-20T08:27:09;23.27;;;4.57;;
21416;SDS011;10869;52.238;10.716;2023-12-20T08:29:35;21.97;;;4.13;;
21416;SDS011;10869;52.238;10.716;2023-12-20T08:32:01;20.33;;;4.40;;
21416;SDS011;10869;52.238;10.716;2023-12-20T08:34:27;20.17;;;4.47;;
21416;SDS011;10869;52.238;10.716;2023-12-20T08:36:53;18.13;;;3.63;;
21416;SDS011;10869;52.238;10.716;2023-12-20T08:39:19;21.37;;;4.20;;
21416;SDS011;10869;52.238;10.716;2023-12-20T08:41:45;24.53;;;5.00;;
21416;SDS011;10869;52.238;10.716;2023-12-20T08:44:10;20.30;;;4.50;;
21416;SDS011;10869;52.238;10.716;2023-12-20T08:46:36;17.97;;;4.13;;
21416;SDS011;10869;52.238;10.716;2023-12-20T08:49:02;18.47;;;4.20;;
21416;SDS011;10869;52.238;10.716;2023-12-20T08:51:28;18.87;;;3.97;;
21416;SDS011;10869;52.238;10.716;2023-12-20T08:53:54;15.73;;;3.30;;
21416;SDS011;10869;52.238;10.716;2023-12-20T08:56:20;18.73;;;4.17;;
21416;SDS011;10869;52.238;10.716;2023-12-20T08:58:46;20.00;;;4.60;;
21416;SDS011;10869;52.238;10.716;2023-12-20T09:01:12;20.77;;;4.40;;
21416;SDS011;10869;52.238;10.716;2023-12-20T09:03:39;21.27;;;4.67;;
21416;SDS011;10869;52.238;10.716;2023-12-20T09:06:05;24.10;;;4.47;;
21416;SDS011;10869;52.238;10.716;2023-12-20T09:11:55;24.70;;;5.17;;
21416;SDS011;10869;52.238;10.716;2023-12-20T09:17:44;21.27;;;4.47;;
21416;SDS011;10869;52.238;10.716;2023-12-20T09:20:11;24.83;;;4.57;;
21416;SDS011;10869;52.238;10.716;2023-12-20T09:22:39;24.40;;;4.47;;
21416;SDS011;10869;52.238;10.716;2023-12-20T09:25:07;23.37;;;5.23;;
21416;SDS011;10869;52.238;10.716;2023-12-20T09:27:35;28.80;;;5.47;;
21416;SDS011;10869;52.238;10.716;2023-12-20T09:30:01;19.93;;;4.07;;
21416;SDS011;10869;52.238;10.716;2023-12-20T09:32:27;21.17;;;3.80;;
21416;SDS011;10869;52.238;10.716;2023-12-20T09:34:54;18.63;;;4.13;;
21416;SDS011;10869;52.238;10.716;2023-12-20T09:37:22;21.00;;;4.30;;
21416;SDS011;10869;52.238;10.716;2023-12-20T09:40:28;22.47;;;5.60;;
21416;SDS011;10869;52.238;10.716;2023-12-20T09:42:58;21.83;;;4.33;;
21416;SDS011;10869;52.238;10.716;2023-12-20T09:45:49;16.70;;;4.23;;
21416;SDS011;10869;52.238;10.716;2023-12-20T09:48:19;15.87;;;3.90;;
21416;SDS011;10869;52.238;10.716;2023-12-20T09:50:45;18.97;;;3.53;;
21416;SDS011;10869;52.238;10.716;2023-12-20T09:53:16;18.23;;;4.10;;
21416;SDS011;10869;52.238;10.716;2023-12-20T09:55:48;19.77;;;3.90;;
21416;SDS011;10869;52.238;10.716;2023-12-20T09:58:14;19.97;;;4.23;;
21416;SDS011;10869;52.238;10.716;2023-12-20T10:00:40;20.53;;;4.50;;
21416;SDS011;10869;52.238;10.716;2023-12-20T10:03:06;20.33;;;4.50;;
21416;SDS011;10869;52.238;10.716;2023-12-20T10:05:32;18.47;;;4.63;;
21416;SDS011;10869;52.238;10.716;2023-12-20T10:08:08;17.00;;;4.17;;
21416;SDS011;10869;52.238;10.716;2023-12-20T10:11:29;18.27;;;4.33;;
21416;SDS011;10869;52.238;10.716;2023-12-20T10:14:01;17.90;;;5.37;;
21416;SDS011;10869;52.238;10.716;2023-12-20T10:16:27;19.67;;;4.07;;
21416;SDS011;10869;52.238;10.716;2023-12-20T10:18:54;20.60;;;4.17;;
21416;SDS011;10869;52.238;10.716;2023-12-20T10:21:20;19.63;;;4.33;;
21416;SDS011;10869;52.238;10.716;2023-12-20T10:23:47;20.13;;;4.77;;
21416;SDS011;10869;52.238;10.716;2023-12-20T10:26:19;22.97;;;4.43;;
21416;SDS011;10869;52.238;10.716;2023-12-20T10:28:46;15.97;;;3.73;;
21416;SDS011;10869;52.238;10.716;2023-12-20T10:31:31;21.07;;;4.77;;
21416;SDS011;10869;52.238;10.716;2023-12-20T10:33:58;15.67;;;4.50;;
21416;SDS011;10869;52.238;10.716;2023-12-20T10:36:25;20.63;;;4.50;;
21416;SDS011;10869;52.238;10.716;2023-12-20T10:38:52;20.47;;;5.63;;
21416;SDS011;10869;52.238;10.716;2023-12-20T10:41:24;17.03;;;4.57;;
21416;SDS011;10869;52.238;10.716;2023-12-20T10:43:58;20.03;;;4.60;;
21416;SDS011;10869;52.238;10.716;2023-12-20T10:46:26;19.03;;;4.57;;
21416;SDS011;10869;52.238;10.716;2023-12-20T10:48:54;20.70;;;5.20;;
21416;SDS011;10869;52.238;10.716;2023-12-20T10:51:20;17.93;;;6.17;;
21416;SDS011;10869;52.238;10.716;2023-12-20T10:53:48;12.40;;;4.67;;
21416;SDS011;10869;52.238;10.716;2023-12-20T10:56:16;16.47;;;4.83;;
21416;SDS011;10869;52.238;10.716;2023-12-20T10:58:43;20.83;;;4.80;;
21416;SDS011;10869;52.238;10.716;2023-12-20T11:01:10;21.37;;;5.97;;
21416;SDS011;10869;52.238;10.716;2023-12-20T11:03:54;20.27;;;5.43;;
21416;SDS011;10869;52.238;10.716;2023-12-20T11:06:33;21.23;;;5.67;;
21416;SDS011;10869;52.238;10.716;2023-12-20T11:09:24;21.77;;;5.30;;
21416;SDS011;10869;52.238;10.716;2023-12-20T11:12:04;20.40;;;4.97;;
21416;SDS011;10869;52.238;10.716;2023-12-20T11:18:04;15.73;;;4.73;;
21416;SDS011;10869;52.238;10.716;2023-12-20T11:20:37;14.97;;;4.30;;
21416;SDS011;10869;52.238;10.716;2023-12-20T11:23:10;13.43;;;4.33;;
21416;SDS011;10869;52.238;10.716;2023-12-20T11:25:48;11.17;;;4.83;;
21416;SDS011;10869;52.238;10.716;2023-12-20T11:28:21;19.17;;;6.17;;
21416;SDS011;10869;52.238;10.716;2023-12-20T11:30:52;19.27;;;5.37;;
21416;SDS011;10869;52.238;10.716;2023-12-20T11:33:24;18.77;;;6.10;;
21416;SDS011;10869;52.238;10.716;2023-12-20T11:35:56;24.07;;;5.50;;
21416;SDS011;10869;52.238;10.716;2023-12-20T11:38:24;22.47;;;5.60;;
21416;SDS011;10869;52.238;10.716;2023-12-20T11:40:51;15.17;;;5.77;;
21416;SDS011;10869;52.238;10.716;2023-12-20T11:43:35;22.53;;;5.63;;
21416;SDS011;10869;52.238;10.716;2023-12-20T11:46:05;19.00;;;5.60;;
21416;SDS011;10869;52.238;10.716;2023-12-20T11:48:32;16.70;;;5.17;;
21416;SDS011;10869;52.238;10.716;2023-12-20T11:50:59;17.43;;;6.30;;
21416;SDS011;10869;52.238;10.716;2023-12-20T11:53:33;15.47;;;5.30;;
21416;SDS011;10869;52.238;10.716;2023-12-20T11:56:04;16.50;;;5.13;;
21416;SDS011;10869;52.238;10.716;2023-12-20T11:58:34;16.83;;;4.83;;
21416;SDS011;10869;52.238;10.716;2023-12-20T12:01:01;15.83;;;4.70;;
21416;SDS011;10869;52.238;10.716;2023-12-20T12:03:32;20.17;;;4.80;;
21416;SDS011;10869;52.238;10.716;2023-12-20T12:05:59;17.67;;;5.67;;
21416;SDS011;10869;52.238;10.716;2023-12-20T12:08:26;18.87;;;5.47;;
21416;SDS011;10869;52.238;10.716;2023-12-20T12:10:51;14.90;;;5.50;;
21416;SDS011;10869;52.238;10.716;2023-12-20T12:16:46;16.27;;;5.23;;
21416;SDS011;10869;52.238;10.716;2023-12-20T12:19:21;13.37;;;5.17;;
21416;SDS011;10869;52.238;10.716;2023-12-20T12:22:09;18.03;;;5.37;;
21416;SDS011;10869;52.238;10.716;2023-12-20T12:24:42;15.60;;;6.00;;
21416;SDS011;10869;52.238;10.716;2023-12-20T12:27:12;22.00;;;5.60;;
21416;SDS011;10869;52.238;10.716;2023-12-20T12:33:01;19.27;;;5.80;;
21416;SDS011;10869;52.238;10.716;2023-12-20T12:35:37;16.33;;;6.23;;
21416;SDS011;10869;52.238;10.716;2023-12-20T12:38:21;12.00;;;3.70;;
21416;SDS011;10869;52.238;10.716;2023-12-20T12:41:25;14.77;;;4.97;;
21416;SDS011;10869;52.238;10.716;2023-12-20T12:47:13;15.37;;;4.40;;
21416;SDS011;10869;52.238;10.716;2023-12-20T12:49:51;17.27;;;4.20;;
21416;SDS011;10869;52.238;10.716;2023-12-20T12:52:31;19.07;;;4.70;;
21416;SDS011;10869;52.238;10.716;2023-12-20T12:54:58;12.60;;;4.33;;
21416;SDS011;10869;52.238;10.716;2023-12-20T13:00:51;13.30;;;4.30;;
21416;SDS011;10869;52.238;10.716;2023-12-20T13:06:12;8.47;;;2.47;;
21416;SDS011;10869;52.238;10.716;2023-12-20T13:09:00;8.40;;;2.23;;
21416;SDS011;10869;52.238;10.716;2023-12-20T13:14:52;8.20;;;1.97;;
21416;SDS011;10869;52.238;10.716;2023-12-20T13:26:43;8.77;;;1.20;;
21416;SDS011;10869;52.238;10.716;2023-12-20T13:29:09;5.30;;;1.43;;
21416;SDS011;10869;52.238;10.716;2023-12-20T13:31:35;6.87;;;1.57;;
21416;SDS011;10869;52.238;10.716;2023-12-20T13:34:01;7.53;;;1.27;;
21416;SDS011;10869;52.238;10.716;2023-12-20T13:36:27;6.50;;;1.03;;
21416;SDS011;10869;52.238;10.716;2023-12-20T13:38:53;7.87;;;1.27;;
21416;SDS011;10869;52.238;10.716;2023-12-20T13:41:19;6.43;;;1.47;;
21416;SDS011;10869;52.238;10.716;2023-12-20T13:43:45;7.77;;;1.37;;
21416;SDS011;10869;52.238;10.716;2023-12-20T13:46:11;6.83;;;1.43;;
21416;SDS011;10869;52.238;10.716;2023-12-20T13:48:37;4.17;;;1.07;;
21416;SDS011;10869;52.238;10.716;2023-12-20T13:51:03;11.27;;;2.03;;
21416;SDS011;10869;52.238;10.716;2023-12-20T13:53:29;6.27;;;1.37;;
21416;SDS011;10869;52.238;10.716;2023-12-20T13:55:55;8.67;;;1.70;;
21416;SDS011;10869;52.238;10.716;2023-12-20T13:58:20;4.27;;;1.30;;
21416;SDS011;10869;52.238;10.716;2023-12-20T14:00:46;5.27;;;1.40;;
21416;SDS011;10869;52.238;10.716;2023-12-20T14:03:13;9.80;;;1.90;;
21416;SDS011;10869;52.238;10.716;2023-12-20T14:05:39;9.10;;;1.50;;
21416;SDS011;10869;52.238;10.716;2023-12-20T14:08:06;7.03;;;1.00;;
21416;SDS011;10869;52.238;10.716;2023-12-20T14:10:32;6.67;;;1.20;;
21416;SDS011;10869;52.238;10.716;2023-12-20T14:16:21;7.90;;;1.50;;
21416;SDS011;10869;52.238;10.716;2023-12-20T14:22:10;7.87;;;1.43;;
21416;SDS011;10869;52.238;10.716;2023-12-20T14:27:58;8.00;;;1.27;;
21416;SDS011;10869;52.238;10.716;2023-12-20T14:30:24;4.50;;;1.40;;
21416;SDS011;10869;52.238;10.716;2023-12-20T14:32:50;7.90;;;1.43;;
21416;SDS011;10869;52.238;10.716;2023-12-20T14:38:56;6.23;;;1.67;;
21416;SDS011;10869;52.238;10.716;2023-12-20T14:41:31;5.30;;;1.10;;
21416;SDS011;10869;52.238;10.716;2023-12-20T14:43:59;6.00;;;1.60;;
21416;SDS011;10869;52.238;10.716;2023-12-20T14:46:37;11.30;;;1.97;;
21416;SDS011;10869;52.238;10.716;2023-12-20T14:49:25;7.00;;;1.53;;
21416;SDS011;10869;52.238;10.716;2023-12-20T14:51:50;6.40;;;1.50;;
21416;SDS011;10869;52.238;10.716;2023-12-20T14:54:16;6.53;;;1.10;;
21416;SDS011;10869;52.238;10.716;2023-12-20T14:56:50;6.10;;;1.57;;
21416;SDS011;10869;52.238;10.716;2023-12-20T14:59:31;8.50;;;2.57;;
21416;SDS011;10869;52.238;10.716;2023-12-20T15:05:45;12.70;;;2.07;;
21416;SDS011;10869;52.238;10.716;2023-12-20T15:08:15;11.37;;;2.20;;
21416;SDS011;10869;52.238;10.716;2023-12-20T15:10:42;5.27;;;1.60;;
21416;SDS011;10869;52.238;10.716;2023-12-20T15:13:08;10.10;;;2.77;;
21416;SDS011;10869;52.238;10.716;2023-12-20T15:15:34;7.57;;;1.60;;
21416;SDS011;10869;52.238;10.716;2023-12-20T15:18:00;10.33;;;2.37;;
21416;SDS011;10869;52.238;10.716;2023-12-20T15:20:28;8.27;;;1.90;;
21416;SDS011;10869;52.238;10.716;2023-12-20T15:22:54;6.90;;;2.00;;
21416;SDS011;10869;52.238;10.716;2023-12-20T15:28:45;9.13;;;1.60;;
21416;SDS011;10869;52.238;10.716;2023-12-20T15:31:14;8.00;;;1.57;;
21416;SDS011;10869;52.238;10.716;2023-12-20T15:33:40;6.27;;;1.67;;
21416;SDS011;10869;52.238;10.716;2023-12-20T15:36:06;6.30;;;2.10;;
21416;SDS011;10869;52.238;10.716;2023-12-20T15:38:32;8.37;;;1.80;;
21416;SDS011;10869;52.238;10.716;2023-12-20T15:41:01;10.47;;;2.17;;
21416;SDS011;10869;52.238;10.716;2023-12-20T15:43:29;5.10;;;1.30;;
21416;SDS011;10869;52.238;10.716;2023-12-20T15:45:55;7.83;;;1.97;;
21416;SDS011;10869;52.238;10.716;2023-12-20T15:48:22;13.83;;;2.33;;
21416;SDS011;10869;52.238;10.716;2023-12-20T15:50:55;10.40;;;1.60;;
21416;SDS011;10869;52.238;10.716;2023-12-20T15:56:54;11.20;;;2.27;;
21416;SDS011;10869;52.238;10.716;2023-12-20T15:59:20;12.10;;;2.67;;
21416;SDS011;10869;52.238;10.716;2023-12-20T16:01:46;12.97;;;2.70;;
21416;SDS011;10869;52.238;10.716;2023-12-20T16:04:12;7.97;;;2.03;;
21416;SDS011;10869;52.238;10.716;2023-12-20T16:06:38;10.00;;;2.87;;
21416;SDS011;10869;52.238;10.716;2023-12-20T16:12:26;12.57;;;2.83;;
21416;SDS011;10869;52.238;10.716;2023-12-20T16:14:52;11.80;;;2.77;;
21416;SDS011;10869;52.238;10.716;2023-12-20T16:17:18;12.40;;;3.57;;
21416;SDS011;10869;52.238;10.716;2023-12-20T16:19:44;10.03;;;2.50;;
21416;SDS011;10869;52.238;10.716;2023-12-20T16:22:10;19.73;;;9.13;;
21416;SDS011;10869;52.238;10.716;2023-12-20T16:24:36;20.07;;;6.47;;
21416;SDS011;10869;52.238;10.716;2023-12-20T16:30:24;12.03;;;2.93;;
21416;SDS011;10869;52.238;10.716;2023-12-20T16:36:13;16.97;;;5.73;;
21416;SDS011;10869;52.238;10.716;2023-12-20T16:38:38;16.87;;;8.37;;
21416;SDS011;10869;52.238;10.716;2023-12-20T16:44:26;16.23;;;3.87;;
21416;SDS011;10869;52.238;10.716;2023-12-20T16:46:52;14.40;;;3.37;;
21416;SDS011;10869;52.238;10.716;2023-12-20T16:49:18;12.03;;;3.67;;
21416;SDS011;10869;52.238;10.716;2023-12-20T16:51:49;13.33;;;2.70;;
21416;SDS011;10869;52.238;10.716;2023-12-20T16:54:15;15.27;;;2.87;;
21416;SDS011;10869;52.238;10.716;2023-12-20T16:57:01;11.97;;;2.60;;
21416;SDS011;10869;52.238;10.716;2023-12-20T17:02:35;11.23;;;2.57;;
21416;SDS011;10869;52.238;10.716;2023-12-20T17:22:30;10.33;;;2.77;;
21416;SDS011;10869;52.238;10.716;2023-12-20T17:27:52;8.70;;;2.10;;
21416;SDS011;10869;52.238;10.716;2023-12-20T17:30:18;11.80;;;1.83;;
21416;SDS011;10869;52.238;10.716;2023-12-20T17:32:50;8.63;;;1.80;;
21416;SDS011;10869;52.238;10.716;2023-12-20T17:35:24;13.87;;;2.23;;
21416;SDS011;10869;52.238;10.716;2023-12-20T17:41:12;21.37;;;3.87;;
21416;SDS011;10869;52.238;10.716;2023-12-20T17:47:00;15.37;;;4.20;;
21416;SDS011;10869;52.238;10.716;2023-12-20T17:52:48;13.90;;;4.33;;
21416;SDS011;10869;52.238;10.716;2023-12-20T17:55:13;18.13;;;4.63;;
21416;SDS011;10869;52.238;10.716;2023-12-20T17:57:39;15.23;;;4.37;;
21416;SDS011;10869;52.238;10.716;2023-12-20T18:03:11;9.50;;;1.90;;
21416;SDS011;10869;52.238;10.716;2023-12-20T18:05:38;13.60;;;3.87;;
21416;SDS011;10869;52.238;10.716;2023-12-20T18:08:07;8.70;;;2.97;;
21416;SDS011;10869;52.238;10.716;2023-12-20T18:13:59;14.13;;;2.43;;
21416;SDS011;10869;52.238;10.716;2023-12-20T18:16:38;14.07;;;2.83;;
21416;SDS011;10869;52.238;10.716;2023-12-20T18:23:00;18.07;;;3.03;;
21416;SDS011;10869;52.238;10.716;2023-12-20T18:25:25;9.77;;;2.30;;
21416;SDS011;10869;52.238;10.716;2023-12-20T18:27:51;13.13;;;2.67;;
21416;SDS011;10869;52.238;10.716;2023-12-20T18:30:20;17.07;;;2.90;;
21416;SDS011;10869;52.238;10.716;2023-12-20T18:32:45;12.87;;;2.67;;
21416;SDS011;10869;52.238;10.716;2023-12-20T18:35:11;15.93;;;3.40;;
21416;SDS011;10869;52.238;10.716;2023-12-20T18:37:37;11.47;;;2.40;;
21416;SDS011;10869;52.238;10.716;2023-12-20T18:40:04;14.00;;;2.77;;
21416;SDS011;10869;52.238;10.716;2023-12-20T18:42:30;19.33;;;4.80;;
21416;SDS011;10869;52.238;10.716;2023-12-20T18:48:19;15.87;;;4.40;;
21416;SDS011;10869;52.238;10.716;2023-12-20T18:54:08;16.27;;;4.13;;
21416;SDS011;10869;52.238;10.716;2023-12-20T18:56:33;16.10;;;4.67;;
21416;SDS011;10869;52.238;10.716;2023-12-20T19:02:33;15.63;;;4.63;;
21416;SDS011;10869;52.238;10.716;2023-12-20T19:05:34;18.87;;;3.87;;
21416;SDS011;10869;52.238;10.716;2023-12-20T19:34:12;21.23;;;6.83;;
21416;SDS011;10869;52.238;10.716;2023-12-20T19:36:39;25.63;;;7.47;;
21416;SDS011;10869;52.238;10.716;2023-12-20T19:39:33;21.07;;;7.07;;
21416;SDS011;10869;52.238;10.716;2023-12-20T19:42:00;16.03;;;6.50;;
21416;SDS011;10869;52.238;10.716;2023-12-20T19:44:26;26.40;;;8.00;;
21416;SDS011;10869;52.238;10.716;2023-12-20T19:46:51;19.33;;;6.80;;
21416;SDS011;10869;52.238;10.716;2023-12-20T19:55:17;29.90;;;11.17;;
21416;SDS011;10869;52.238;10.716;2023-12-20T19:57:43;26.90;;;12.33;;
21416;SDS011;10869;52.238;10.716;2023-12-20T20:00:09;29.33;;;14.23;;
21416;SDS011;10869;52.238;10.716;2023-12-20T20:02:35;32.10;;;13.80;;
21416;SDS011;10869;52.238;10.716;2023-12-20T20:05:03;32.60;;;12.97;;
21416;SDS011;10869;52.238;10.716;2023-12-20T20:10:57;23.53;;;10.07;;
21416;SDS011;10869;52.238;10.716;2023-12-20T20:13:30;24.37;;;9.93;;
21416;SDS011;10869;52.238;10.716;2023-12-20T20:15:59;29.33;;;10.80;;
21416;SDS011;10869;52.238;10.716;2023-12-20T20:21:28;20.10;;;8.20;;
21416;SDS011;10869;52.238;10.716;2023-12-20T20:23:56;20.13;;;8.60;;
21416;SDS011;10869;52.238;10.716;2023-12-20T20:29:44;19.10;;;8.00;;
21416;SDS011;10869;52.238;10.716;2023-12-20T20:37:59;17.40;;;7.87;;
21416;SDS011;10869;52.238;10.716;2023-12-20T20:40:24;17.73;;;7.10;;
21416;SDS011;10869;52.238;10.716;2023-12-20T20:46:15;17.77;;;9.40;;
21416;SDS011;10869;52.238;10.716;2023-12-20T20:52:07;23.20;;;11.57;;
21416;SDS011;10869;52.238;10.716;2023-12-20T20:57:54;28.57;;;12.60;;
21416;SDS011;10869;52.238;10.716;2023-12-20T21:03:42;30.50;;;14.00;;
21416;SDS011;10869;52.238;10.716;2023-12-20T21:06:07;49.47;;;17.33;;
21416;SDS011;10869;52.238;10.716;2023-12-20T21:08:33;36.43;;;16.27;;
21416;SDS011;10869;52.238;10.716;2023-12-20T21:10:59;43.50;;;18.60;;
21416;SDS011;10869;52.238;10.716;2023-12-20T21:13:25;35.53;;;18.60;;
21416;SDS011;10869;52.238;10.716;2023-12-20T21:15:51;38.37;;;17.60;;
21416;SDS011;10869;52.238;10.716;2023-12-20T21:18:17;37.70;;;19.33;;
21416;SDS011;10869;52.238;10.716;2023-12-20T21:20:43;34.03;;;18.63;;
21416;SDS011;10869;52.238;10.716;2023-12-20T21:23:09;34.03;;;18.00;;
21416;SDS011;10869;52.238;10.716;2023-12-20T21:28:57;28.43;;;17.07;;
21416;SDS011;10869;52.238;10.716;2023-12-20T21:31:23;36.13;;;17.87;;
21416;SDS011;10869;52.238;10.716;2023-12-20T21:37:24;30.60;;;16.40;;
21416;SDS011;10869;52.238;10.716;2023-12-20T21:39:50;29.23;;;15.00;;
21416;SDS011;10869;52.238;10.716;2023-12-20T21:42:25;29.43;;;15.50;;
21416;SDS011;10869;52.238;10.716;2023-12-20T21:44:52;30.10;;;15.50;;
21416;SDS011;10869;52.238;10.716;2023-12-20T21:47:18;33.13;;;14.33;;
21416;SDS011;10869;52.238;10.716;2023-12-20T21:49:43;33.67;;;14.83;;
21416;SDS011;10869;52.238;10.716;2023-12-20T21:52:09;25.30;;;13.13;;
21416;SDS011;10869;52.238;10.716;2023-12-20T21:57:57;26.50;;;14.50;;
21416;SDS011;10869;52.238;10.716;2023-12-20T22:00:23;25.83;;;13.43;;
21416;SDS011;10869;52.238;10.716;2023-12-20T22:02:49;26.40;;;13.57;;
21416;SDS011;10869;52.238;10.716;2023-12-20T22:05:14;22.33;;;13.47;;